Results – Race One

Long Course

Singles

PosNo.1No.2Name1Surname1Name2Surname2TotalTimeKPosSexAge
19061ANDYBIRKETT[ 0:55:15.97 ]K1 1M11
26386MATTHEWBOUMAN[ 0:55:19.66 ]K1 2M2(V)1
39527GENEPRATO[ 0:57:43.03 ]K1 3M3(U23)1
48445LUKENISBET[ 0:57:49.05 ]K1 4M44
59800TYRONMAHER[ 0:59:34.36 ]K1 5M55
660476STEWARTLITTLE[ 1:01:04.46 ]K1 6M6(U23)2
78881OLIVERBURN[ 1:01:12.30 ]K1 7M7(SV)1
86994MICHELDE RAUVILLE[ 1:03:09.96 ]K1 8M8(SM)1
97546PAULOSSHOZI[ 1:03:41.93 ]K1 9M97
108129LEEFURBY[ 1:04:11.48 ]K1 10M10(SM)2
118859JENNAWARD[ 1:04:16.09 ]K1 11F18
1260195SABINALAWRIE[ 1:04:21.00 ]K1 12F2(U23)3
136409GORDONSPALDING[ 1:05:18.99 ]K1 13M11(SGM)2
147061MALCOLMPITT[ 1:05:26.68 ]K1 14M12(V)4
156763DONNAWINTER[ 1:05:33.08 ]K1 15F3(SV)3
166354CRAIGGREENLAND[ 1:05:37.60 ]K1 16M13(SM)3
1760267MARKDRUMMOND[ 1:07:59.76 ]K1 17M14(GM)2
18559GRANTFOWLDS[ 1:08:09.18 ]K1 18M15(SM)4
19517STUARTCARTER[ 1:08:15.74 ]K1 19M16(SGM)7
206635MARKLEWIN[ 1:08:30.06 ]K1 20M17(GM)3
2160135CHARLMASSYN[ 1:08:49.48 ]K1 21M18(M)6
228200PAULSCRUBY[ 1:09:00.23 ]K1 22M19(SGM)8
233093MARCDESCOINS[ 1:09:07.90 ]K1 23M20(M)7
2461174DUNCANCARTWRIGHT[ 1:09:56.53 ]K1 24M21(M)8
2570839GAVINBOTHA[ 1:10:05.82 ]K1 25M22(M)9
267445ALLANLAWRIE[ 1:10:18.28 ]K1 26M23(M)10
278869GAVINDUNDAS-STARR[ 1:11:18.06 ]K1 27M24(SM)5
287063GUYCOLLYER[ 1:13:05.00 ]K1 28M25(SM)6
2961000JASPERGAYLARD[ 1:13:07.84 ]K1 29M26(U18)1
306307WARRENHARDWICK[ 1:13:43.95 ]K1 30M27(V)7
319900VERNONO'CONNELL[ 1:13:48.09 ]K1 31M28(GM)5
32600MIKESTAPHORST[ 1:13:51.15 ]K1 32M29(GGM)2
336678DAVIDGILLMER[ 1:13:53.58 ]K1 33M30(GGM)3
3490792PAULCHALUPSKY[ 1:13:55.77 ]K1 34M31(GGM)4
356652ROBDRUMMOND[ 1:13:56.82 ]K1 35M32(GGM)5
36381EUGENESWANEPOEL[ 1:13:57.06 ]K1 36M3313
3760291MELISSAVAN ROOYEN[ 1:14:22.45 ]K1 37F4(SV)5
3860328MHLENGIMNGADI[ 1:16:11.42 ]K1 38M3415
3961037JACKEDMONDS[ 1:16:16.94 ]K1 39M35(U16)1
406769JONATHANMAEHLER[ 1:16:55.25 ]K1 40M36(SM)7
4161250GARYBOWLER[ 1:18:28.08 ]K1 41M37(M)12
4270426TEEGANHARDWICK[ 1:19:41.87 ]K1 42F5(U23)4

Doubles

PosNo.1No.2Name1Surname1Name2Surname2TotalTimeKPosSexAge
1965770231RICHARDLOWECALLAMDAVIS[ 0:57:40.78 ]K2 1M12
2603166797BRENDONDELPORTJASONEKSTRAND[ 0:57:44.00 ]K2 2M23
374538153ALLANHOLDGEOFFTHOMPSON[ 1:01:43.28 ]K2 3M3(GGM)1
494546874GRANTSMITHNICHOLASHORN[ 1:02:25.54 ]K2 4M4(M)1
58209961LOUISAVAN STADENGARETHMILES[ 1:02:27.49 ]K2 5X1(V)1
668806399CLAUDIOMANFRONCRAIGBRUTON[ 1:02:28.57 ]K2 6M5(V)2
770786262BUCKEYSYMONSDAVEFRASER[ 1:02:32.05 ]K2 7M6(GM)1
869796083CRAIGMCINTOSHRICHARDHOGG[ 1:02:37.89 ]K2 8M7(M)1
9695660848DAVIDAIKINSWALLYBODIN[ 1:04:45.19 ]K2 9M8(M)2
10769684668LYNBENNETTDEBBIEGILLET[ 1:05:35.93 ]K2 10F1(SV)4
11895661034GARYBEHNMURRAYBEHN[ 1:05:52.31 ]K2 11M99
12932579842CHRISWOODGATEROBERTMC INERNEY[ 1:06:05.68 ]K2 12M10(M)3
1385146866TREVORVERNESJACQUIBOYD[ 1:06:54.99 ]K2 13X2(M)3
1470828377ROBERTSTRACHANSTEVENSAUNDERS[ 1:07:41.12 ]K2 14M11(M)4
152899995STUARTHANCOCKSWARRENLANCASTER[ 1:07:45.67 ]K2 15M1210
1675717785RUSSELLSOLOMONMARKJOHNSON[ 1:07:56.78 ]K2 16M13(M)5
173657780JOHNDIMMICKKEITHLYONS[ 1:07:57.24 ]K2 17M14(M)6
1883378340DAVIDBUTTONJACQUIEBUTTON[ 1:10:43.90 ]K2 18X3(GM)2
197073370962CARAWAUDTRACEYOELLERMANN[ 1:13:29.51 ]K2 19F2(U18)1

Short Course

PosNo.1No.2Name1Surname1Name2Surname2Club1Union1Club2Union2TotalTimeKPosSexAgeSUP
13457225MURRAYSMITHDYLANSMITHPIRKZMARKZ[ 0:36:41.81 ]K2 1M11
2632797672LANCEHOWARTHLAURENHOWARTHCRUKZNATKZ[ 0:36:43.28 ]K2 2M2(V)1
3118710399BARRYPAINTINGPAULINEPAINTINGDABGADABGA[ 0:37:16.33 ]K2 3X1(SM)1
46761GARYWAUDKINKZ[ 0:39:21.98 ]K1 1M3(SGM)1
53308GERRIEMOOLMANACDGA[ 0:39:23.45 ]K1 2M4(M)1
660331MINENHLENTOMBELAAMAKZ[ 0:39:24.67 ]K1 3M5(U14)1
760510TAYLAGILMOREVARKZ[ 0:39:26.31 ]K1 4F1(U18)1
8770460629DEANMAC LEANAMANDASEIDLERSTEKZPWCKZ[ 0:40:11.19 ]K2 4X2(V)2
96304T00874BRUCEGLENDAYDIGLENDAYPWCKZTEMPTM[ 0:41:12.47 ]K2 5X3(M)2
1061019LUNGELOSHANGEAMAKZ[ 0:41:18.41 ]K1 5M6(U14)2
117090861001INGEPETERSENCLIVEFORSTERPWCKZPWCKZ[ 0:41:35.24 ]K2 6X4(SGM)2
12T00859DAVIDREESTEMPTM[ 0:42:13.80 ]K1 6M7(SGM)3
139581WILLIAMTROTTERPWCKZ[ 0:42:24.08 ]K1 7M8(GGM)1
1460978SIOBHANSHARPMSLKZ[ 0:42:35.91 ]K1 8F22
157148CRAIGMUSTARDNATKZ[ 0:42:48.44 ]K1 9M93
16T00876PETERGILMORETEMPTM[ 0:45:42.09 ]K1 10M10(M)3
1760325THUBELIHLEBANDAAMAKZ[ 0:45:53.54 ]K1 11M11(U18)2
1860330KWANELEMNGOMAAMAKZ[ 0:46:20.06 ]K1 12M12(U14)3
1960743SENZONGCOBOAMAKZ[ 0:46:26.33 ]K1 13M13(U12)1
2060596CHRISTIAANDE KLERKAMAKZ[ 0:47:17.51 ]K1 14M14(U18)3
219053MATTHEWSWEMMERSUPDKZ[ 0:47:23.62 ]K1 15M154SUP
2261236HENKLOTZAMAKZ[ 0:47:28.66 ]K1 16M16(GM)1
2360326KWANELEBANDAAMAKZ[ 0:47:46.61 ]K1 17M17(U16)1
246451BRUCEACUTTMIDKZ[ 0:47:52.73 ]K1 18M18(GM)2
2560712JENNANELAMAKZ[ 0:47:59.08 ]K1 19F3(U16)2
2670120ALANHILLSCOKZ[ 0:50:54.05 ]K1 20M19(SM)2
2770637ROYCARTYSCOKZ[ 0:50:58.98 ]K1 21M20(GM)3
28T0133060600KATHERINELAATZGABRIELLACAMPBELLPWCKZTWCKZ[ 0:51:48.34 ]K2 7F45
29T01332CANDICEDANIELTEMPTM[ 0:52:24.89 ]K1 22F5(V)3
30 T000195381KATHERINET MARK CSMITHMIDKZNATKZ[ 0:52:36.18 ]K2 8X5(V)4
3160595PETRUSDE KLERKAMAKZ[ 0:52:50.00 ]K1 23M21(U18)4
32T01331MATTHOWARDTEMPTM[ 0:52:59.00 ]K1 24M22(U14)4
3361208AIDENFURBYKINKZ[ 0:53:10.00 ]K1 25M23(U12)2
3461175DOMINICFURBYKINKZ[ 0:53:45.00 ]K1 26M24(U14)5
3570888MICHAELMURPHYPWCKZ[ 0:53:56.00 ]K1 27M25(GGM)2
366949JONIVINSPWCKZ[ 0:54:24.00 ]K1 28M26(SM)3SUP
37T01318CIARDASHARPTEMPTM[ 0:54:43.00 ]K1 29F6(U23)1
3860515LANDEWILLIAMSONSUPDKZ[ 0:55:00.00 ]K1 30F76SUP
39T01314ANDREFITTTEMPTM[ 1:00:00.00 ]K1 31M27(SM)4SUP

Comments are closed